sensor_id;sensor_type;location;lat;lon;timestamp;P1;durP1;ratioP1;P2;durP2;ratioP2
38425;SDS011;24210;51.460;6.148;2022-11-02T00:00:10;10.53;;;1.30;;
38425;SDS011;24210;51.460;6.148;2022-11-02T00:02:36;7.32;;;1.75;;
38425;SDS011;24210;51.460;6.148;2022-11-02T00:05:01;9.83;;;2.40;;
38425;SDS011;24210;51.460;6.148;2022-11-02T00:07:27;7.07;;;1.70;;
38425;SDS011;24210;51.460;6.148;2022-11-02T00:09:52;7.97;;;1.23;;
38425;SDS011;24210;51.460;6.148;2022-11-02T00:12:17;8.77;;;1.17;;
38425;SDS011;24210;51.460;6.148;2022-11-02T00:14:42;5.23;;;1.13;;
38425;SDS011;24210;51.460;6.148;2022-11-02T00:17:07;6.07;;;1.83;;
38425;SDS011;24210;51.460;6.148;2022-11-02T00:19:33;7.90;;;2.33;;
38425;SDS011;24210;51.460;6.148;2022-11-02T00:21:58;7.07;;;1.10;;
38425;SDS011;24210;51.460;6.148;2022-11-02T00:24:25;7.78;;;2.05;;
38425;SDS011;24210;51.460;6.148;2022-11-02T00:26:51;9.70;;;2.63;;
38425;SDS011;24210;51.460;6.148;2022-11-02T00:29:16;7.87;;;1.30;;
38425;SDS011;24210;51.460;6.148;2022-11-02T00:31:41;14.83;;;1.50;;
38425;SDS011;24210;51.460;6.148;2022-11-02T00:34:07;9.57;;;1.43;;
38425;SDS011;24210;51.460;6.148;2022-11-02T00:36:32;10.07;;;1.40;;
38425;SDS011;24210;51.460;6.148;2022-11-02T00:38:57;10.73;;;2.37;;
38425;SDS011;24210;51.460;6.148;2022-11-02T00:41:23;9.67;;;1.47;;
38425;SDS011;24210;51.460;6.148;2022-11-02T00:43:48;10.73;;;1.50;;
38425;SDS011;24210;51.460;6.148;2022-11-02T00:46:13;5.87;;;1.07;;
38425;SDS011;24210;51.460;6.148;2022-11-02T00:48:38;7.17;;;1.57;;
38425;SDS011;24210;51.460;6.148;2022-11-02T00:51:04;7.60;;;1.20;;
38425;SDS011;24210;51.460;6.148;2022-11-02T00:53:29;12.03;;;2.03;;
38425;SDS011;24210;51.460;6.148;2022-11-02T00:55:54;10.20;;;2.33;;
38425;SDS011;24210;51.460;6.148;2022-11-02T00:58:19;11.20;;;2.10;;
38425;SDS011;24210;51.460;6.148;2022-11-02T01:00:45;6.47;;;1.70;;
38425;SDS011;24210;51.460;6.148;2022-11-02T01:03:10;10.37;;;1.20;;
38425;SDS011;24210;51.460;6.148;2022-11-02T01:05:35;10.10;;;1.13;;
38425;SDS011;24210;51.460;6.148;2022-11-02T01:08:01;6.30;;;1.75;;
38425;SDS011;24210;51.460;6.148;2022-11-02T01:10:26;8.90;;;1.57;;
38425;SDS011;24210;51.460;6.148;2022-11-02T01:12:52;6.40;;;1.00;;
38425;SDS011;24210;51.460;6.148;2022-11-02T01:15:17;7.07;;;1.17;;
38425;SDS011;24210;51.460;6.148;2022-11-02T01:17:42;8.23;;;1.80;;
38425;SDS011;24210;51.460;6.148;2022-11-02T01:20:07;8.03;;;2.23;;
38425;SDS011;24210;51.460;6.148;2022-11-02T01:22:33;3.33;;;0.90;;
38425;SDS011;24210;51.460;6.148;2022-11-02T01:24:59;7.70;;;1.38;;
38425;SDS011;24210;51.460;6.148;2022-11-02T01:27:25;10.53;;;1.83;;
38425;SDS011;24210;51.460;6.148;2022-11-02T01:29:50;6.13;;;1.60;;
38425;SDS011;24210;51.460;6.148;2022-11-02T01:32:15;3.37;;;0.77;;
38425;SDS011;24210;51.460;6.148;2022-11-02T01:34:40;4.00;;;0.83;;
38425;SDS011;24210;51.460;6.148;2022-11-02T01:37:05;5.57;;;0.70;;
38425;SDS011;24210;51.460;6.148;2022-11-02T01:39:31;5.67;;;1.00;;
38425;SDS011;24210;51.460;6.148;2022-11-02T01:41:56;4.07;;;1.13;;
38425;SDS011;24210;51.460;6.148;2022-11-02T01:44:31;9.30;;;1.50;;
38425;SDS011;24210;51.460;6.148;2022-11-02T01:46:58;5.07;;;0.87;;
38425;SDS011;24210;51.460;6.148;2022-11-02T01:49:24;3.75;;;0.55;;
38425;SDS011;24210;51.460;6.148;2022-11-02T01:51:54;2.23;;;0.67;;
38425;SDS011;24210;51.460;6.148;2022-11-02T01:54:24;4.95;;;0.80;;
38425;SDS011;24210;51.460;6.148;2022-11-02T01:56:51;7.07;;;0.73;;
38425;SDS011;24210;51.460;6.148;2022-11-02T01:59:18;3.13;;;1.38;;
38425;SDS011;24210;51.460;6.148;2022-11-02T02:01:45;3.92;;;0.60;;
38425;SDS011;24210;51.460;6.148;2022-11-02T02:04:11;8.80;;;0.80;;
38425;SDS011;24210;51.460;6.148;2022-11-02T02:06:37;7.17;;;0.70;;
38425;SDS011;24210;51.460;6.148;2022-11-02T02:09:03;4.95;;;0.52;;
38425;SDS011;24210;51.460;6.148;2022-11-02T02:13:59;8.13;;;0.90;;
38425;SDS011;24210;51.460;6.148;2022-11-02T02:16:29;10.50;;;1.48;;
38425;SDS011;24210;51.460;6.148;2022-11-02T02:18:58;4.70;;;0.73;;
38425;SDS011;24210;51.460;6.148;2022-11-02T02:24:15;6.35;;;0.63;;
38425;SDS011;24210;51.460;6.148;2022-11-02T02:29:13;5.90;;;1.42;;
38425;SDS011;24210;51.460;6.148;2022-11-02T02:31:43;8.05;;;2.25;;
38425;SDS011;24210;51.460;6.148;2022-11-02T02:36:51;5.60;;;0.80;;
38425;SDS011;24210;51.460;6.148;2022-11-02T02:41:49;8.50;;;1.20;;
38425;SDS011;24210;51.460;6.148;2022-11-02T02:44:19;5.35;;;1.13;;
38425;SDS011;24210;51.460;6.148;2022-11-02T02:46:47;9.75;;;1.55;;
38425;SDS011;24210;51.460;6.148;2022-11-02T02:49:14;5.45;;;0.98;;
38425;SDS011;24210;51.460;6.148;2022-11-02T02:51:42;5.68;;;1.10;;
38425;SDS011;24210;51.460;6.148;2022-11-02T02:54:10;4.60;;;0.40;;
38425;SDS011;24210;51.460;6.148;2022-11-02T02:56:41;8.93;;;0.60;;
38425;SDS011;24210;51.460;6.148;2022-11-02T02:59:07;3.53;;;0.70;;
38425;SDS011;24210;51.460;6.148;2022-11-02T03:01:38;6.70;;;1.02;;
38425;SDS011;24210;51.460;6.148;2022-11-02T03:04:04;7.25;;;2.47;;
38425;SDS011;24210;51.460;6.148;2022-11-02T03:06:30;8.57;;;1.10;;
38425;SDS011;24210;51.460;6.148;2022-11-02T03:09:02;6.95;;;0.90;;
38425;SDS011;24210;51.460;6.148;2022-11-02T03:11:30;5.88;;;2.28;;
38425;SDS011;24210;51.460;6.148;2022-11-02T03:21:43;6.32;;;0.85;;
38425;SDS011;24210;51.460;6.148;2022-11-02T03:24:12;4.63;;;0.70;;
38425;SDS011;24210;51.460;6.148;2022-11-02T03:29:07;6.73;;;1.60;;
38425;SDS011;24210;51.460;6.148;2022-11-02T03:31:37;3.65;;;1.02;;
38425;SDS011;24210;51.460;6.148;2022-11-02T03:34:16;6.25;;;0.95;;
38425;SDS011;24210;51.460;6.148;2022-11-02T03:36:56;4.93;;;0.93;;
38425;SDS011;24210;51.460;6.148;2022-11-02T03:39:30;6.90;;;0.70;;
38425;SDS011;24210;51.460;6.148;2022-11-02T03:41:56;7.72;;;1.45;;
38425;SDS011;24210;51.460;6.148;2022-11-02T03:44:23;9.60;;;1.92;;
38425;SDS011;24210;51.460;6.148;2022-11-02T03:46:50;9.98;;;1.50;;
38425;SDS011;24210;51.460;6.148;2022-11-02T03:49:18;5.30;;;1.35;;
38425;SDS011;24210;51.460;6.148;2022-11-02T03:51:44;7.63;;;0.90;;
38425;SDS011;24210;51.460;6.148;2022-11-02T03:54:12;2.42;;;0.40;;
38425;SDS011;24210;51.460;6.148;2022-11-02T03:56:41;5.45;;;0.80;;
38425;SDS011;24210;51.460;6.148;2022-11-02T03:59:07;9.38;;;0.70;;
38425;SDS011;24210;51.460;6.148;2022-11-02T04:01:36;6.27;;;1.53;;
38425;SDS011;24210;51.460;6.148;2022-11-02T04:04:03;3.53;;;0.70;;
38425;SDS011;24210;51.460;6.148;2022-11-02T04:06:28;6.20;;;0.93;;
38425;SDS011;24210;51.460;6.148;2022-11-02T04:08:53;6.27;;;0.87;;
38425;SDS011;24210;51.460;6.148;2022-11-02T04:11:19;6.23;;;1.00;;
38425;SDS011;24210;51.460;6.148;2022-11-02T04:14:02;5.70;;;1.20;;
38425;SDS011;24210;51.460;6.148;2022-11-02T04:16:46;6.90;;;1.02;;
38425;SDS011;24210;51.460;6.148;2022-11-02T04:19:12;4.97;;;0.63;;
38425;SDS011;24210;51.460;6.148;2022-11-02T04:21:52;8.02;;;1.33;;
38425;SDS011;24210;51.460;6.148;2022-11-02T04:24:36;5.88;;;1.05;;
38425;SDS011;24210;51.460;6.148;2022-11-02T04:27:20;8.50;;;1.33;;
38425;SDS011;24210;51.460;6.148;2022-11-02T04:29:45;3.73;;;0.90;;
38425;SDS011;24210;51.460;6.148;2022-11-02T04:32:10;7.30;;;1.87;;
38425;SDS011;24210;51.460;6.148;2022-11-02T04:34:35;8.57;;;2.33;;
38425;SDS011;24210;51.460;6.148;2022-11-02T04:37:01;6.97;;;0.97;;
38425;SDS011;24210;51.460;6.148;2022-11-02T04:39:46;10.82;;;1.90;;
38425;SDS011;24210;51.460;6.148;2022-11-02T04:42:11;12.47;;;2.10;;
38425;SDS011;24210;51.460;6.148;2022-11-02T04:44:36;3.93;;;1.17;;
38425;SDS011;24210;51.460;6.148;2022-11-02T04:47:01;8.30;;;1.40;;
38425;SDS011;24210;51.460;6.148;2022-11-02T04:49:27;8.17;;;1.43;;
38425;SDS011;24210;51.460;6.148;2022-11-02T04:51:52;7.90;;;1.40;;
38425;SDS011;24210;51.460;6.148;2022-11-02T04:54:17;7.47;;;0.97;;
38425;SDS011;24210;51.460;6.148;2022-11-02T04:56:42;12.57;;;1.80;;
38425;SDS011;24210;51.460;6.148;2022-11-02T04:59:07;4.70;;;1.80;;
38425;SDS011;24210;51.460;6.148;2022-11-02T05:01:33;2.53;;;0.43;;
38425;SDS011;24210;51.460;6.148;2022-11-02T05:03:58;7.90;;;0.80;;
38425;SDS011;24210;51.460;6.148;2022-11-02T05:06:23;6.77;;;0.77;;
38425;SDS011;24210;51.460;6.148;2022-11-02T05:08:49;6.73;;;0.73;;
38425;SDS011;24210;51.460;6.148;2022-11-02T05:11:14;4.53;;;1.40;;
38425;SDS011;24210;51.460;6.148;2022-11-02T05:13:39;6.23;;;1.70;;
38425;SDS011;24210;51.460;6.148;2022-11-02T05:16:05;13.13;;;2.30;;
38425;SDS011;24210;51.460;6.148;2022-11-02T05:18:30;4.13;;;1.17;;
38425;SDS011;24210;51.460;6.148;2022-11-02T05:20:57;9.97;;;1.57;;
38425;SDS011;24210;51.460;6.148;2022-11-02T05:23:22;7.68;;;1.48;;
38425;SDS011;24210;51.460;6.148;2022-11-02T05:25:57;4.20;;;0.57;;
38425;SDS011;24210;51.460;6.148;2022-11-02T05:28:23;6.45;;;1.20;;
38425;SDS011;24210;51.460;6.148;2022-11-02T05:30:48;8.97;;;1.23;;
38425;SDS011;24210;51.460;6.148;2022-11-02T05:33:14;8.63;;;1.10;;
38425;SDS011;24210;51.460;6.148;2022-11-02T05:35:39;6.37;;;1.00;;
38425;SDS011;24210;51.460;6.148;2022-11-02T05:38:05;1.87;;;0.57;;
38425;SDS011;24210;51.460;6.148;2022-11-02T05:40:30;8.20;;;1.10;;
38425;SDS011;24210;51.460;6.148;2022-11-02T05:42:59;2.90;;;0.67;;
38425;SDS011;24210;51.460;6.148;2022-11-02T05:45:24;6.78;;;1.27;;
38425;SDS011;24210;51.460;6.148;2022-11-02T05:47:49;7.30;;;1.00;;
38425;SDS011;24210;51.460;6.148;2022-11-02T05:50:15;11.20;;;1.30;;
38425;SDS011;24210;51.460;6.148;2022-11-02T05:52:40;6.70;;;1.07;;
38425;SDS011;24210;51.460;6.148;2022-11-02T05:55:05;6.00;;;1.13;;
38425;SDS011;24210;51.460;6.148;2022-11-02T05:57:31;7.83;;;1.20;;
38425;SDS011;24210;51.460;6.148;2022-11-02T05:59:56;4.67;;;2.00;;
38425;SDS011;24210;51.460;6.148;2022-11-02T06:02:21;6.20;;;1.47;;
38425;SDS011;24210;51.460;6.148;2022-11-02T06:04:46;5.50;;;1.37;;
38425;SDS011;24210;51.460;6.148;2022-11-02T06:07:11;7.87;;;0.97;;
38425;SDS011;24210;51.460;6.148;2022-11-02T06:09:37;5.10;;;0.57;;
38425;SDS011;24210;51.460;6.148;2022-11-02T06:12:02;7.53;;;1.07;;
38425;SDS011;24210;51.460;6.148;2022-11-02T06:14:27;7.37;;;0.67;;
38425;SDS011;24210;51.460;6.148;2022-11-02T06:16:52;5.97;;;0.77;;
38425;SDS011;24210;51.460;6.148;2022-11-02T06:19:17;9.60;;;1.63;;
38425;SDS011;24210;51.460;6.148;2022-11-02T06:21:43;8.30;;;0.97;;
38425;SDS011;24210;51.460;6.148;2022-11-02T06:24:08;7.53;;;1.50;;
38425;SDS011;24210;51.460;6.148;2022-11-02T06:26:33;5.77;;;0.83;;
38425;SDS011;24210;51.460;6.148;2022-11-02T06:28:58;6.00;;;1.40;;
38425;SDS011;24210;51.460;6.148;2022-11-02T06:31:24;10.07;;;1.00;;
38425;SDS011;24210;51.460;6.148;2022-11-02T06:33:49;11.40;;;1.97;;
38425;SDS011;24210;51.460;6.148;2022-11-02T06:36:14;4.13;;;1.30;;
38425;SDS011;24210;51.460;6.148;2022-11-02T06:38:39;12.23;;;2.40;;
38425;SDS011;24210;51.460;6.148;2022-11-02T06:41:05;5.75;;;1.05;;
38425;SDS011;24210;51.460;6.148;2022-11-02T06:43:31;9.80;;;1.90;;
38425;SDS011;24210;51.460;6.148;2022-11-02T06:45:57;2.58;;;0.52;;
38425;SDS011;24210;51.460;6.148;2022-11-02T06:50:48;11.43;;;1.48;;
38425;SDS011;24210;51.460;6.148;2022-11-02T06:53:14;7.70;;;0.70;;
38425;SDS011;24210;51.460;6.148;2022-11-02T06:55:39;2.60;;;0.20;;
38425;SDS011;24210;51.460;6.148;2022-11-02T06:58:04;5.00;;;0.70;;
38425;SDS011;24210;51.460;6.148;2022-11-02T07:00:29;6.00;;;1.27;;
38425;SDS011;24210;51.460;6.148;2022-11-02T07:03:05;6.73;;;0.83;;
38425;SDS011;24210;51.460;6.148;2022-11-02T07:05:30;10.73;;;1.10;;
38425;SDS011;24210;51.460;6.148;2022-11-02T07:07:56;3.83;;;1.67;;
38425;SDS011;24210;51.460;6.148;2022-11-02T07:10:21;4.90;;;1.33;;
38425;SDS011;24210;51.460;6.148;2022-11-02T07:12:47;2.33;;;0.83;;
38425;SDS011;24210;51.460;6.148;2022-11-02T07:15:15;1.02;;;0.25;;
38425;SDS011;24210;51.460;6.148;2022-11-02T07:17:40;13.40;;;1.60;;
38425;SDS011;24210;51.460;6.148;2022-11-02T07:20:05;1.67;;;0.83;;
38425;SDS011;24210;51.460;6.148;2022-11-02T07:22:31;2.00;;;0.17;;
38425;SDS011;24210;51.460;6.148;2022-11-02T07:24:56;4.47;;;1.23;;
38425;SDS011;24210;51.460;6.148;2022-11-02T07:27:21;1.30;;;0.00;;
38425;SDS011;24210;51.460;6.148;2022-11-02T07:29:46;3.57;;;1.33;;
38425;SDS011;24210;51.460;6.148;2022-11-02T07:32:12;3.47;;;0.80;;
38425;SDS011;24210;51.460;6.148;2022-11-02T07:34:37;2.73;;;0.30;;
38425;SDS011;24210;51.460;6.148;2022-11-02T07:37:02;8.50;;;0.93;;
38425;SDS011;24210;51.460;6.148;2022-11-02T07:39:27;3.13;;;0.57;;
38425;SDS011;24210;51.460;6.148;2022-11-02T07:41:53;3.17;;;1.23;;
38425;SDS011;24210;51.460;6.148;2022-11-02T07:44:18;4.53;;;1.17;;
38425;SDS011;24210;51.460;6.148;2022-11-02T07:46:43;4.43;;;1.23;;
38425;SDS011;24210;51.460;6.148;2022-11-02T07:49:08;6.00;;;0.40;;
38425;SDS011;24210;51.460;6.148;2022-11-02T07:51:33;9.67;;;1.57;;
38425;SDS011;24210;51.460;6.148;2022-11-02T07:53:59;9.00;;;1.13;;
38425;SDS011;24210;51.460;6.148;2022-11-02T07:56:25;2.88;;;1.27;;
38425;SDS011;24210;51.460;6.148;2022-11-02T07:58:50;3.60;;;0.20;;
38425;SDS011;24210;51.460;6.148;2022-11-02T08:01:15;4.43;;;0.60;;
38425;SDS011;24210;51.460;6.148;2022-11-02T08:03:41;1.13;;;0.67;;
38425;SDS011;24210;51.460;6.148;2022-11-02T08:06:06;3.63;;;0.63;;
38425;SDS011;24210;51.460;6.148;2022-11-02T08:08:31;15.03;;;1.03;;
38425;SDS011;24210;51.460;6.148;2022-11-02T08:11:01;2.47;;;0.70;;
38425;SDS011;24210;51.460;6.148;2022-11-02T08:13:26;4.53;;;0.80;;
38425;SDS011;24210;51.460;6.148;2022-11-02T08:15:52;12.60;;;1.20;;
38425;SDS011;24210;51.460;6.148;2022-11-02T08:20:43;1.27;;;0.40;;
38425;SDS011;24210;51.460;6.148;2022-11-02T08:23:10;5.55;;;1.25;;
38425;SDS011;24210;51.460;6.148;2022-11-02T08:25:35;1.43;;;0.80;;
38425;SDS011;24210;51.460;6.148;2022-11-02T08:28:01;1.83;;;0.67;;
38425;SDS011;24210;51.460;6.148;2022-11-02T08:30:27;5.67;;;0.47;;
38425;SDS011;24210;51.460;6.148;2022-11-02T08:32:53;4.50;;;1.13;;
38425;SDS011;24210;51.460;6.148;2022-11-02T08:35:18;1.77;;;0.63;;
38425;SDS011;24210;51.460;6.148;2022-11-02T08:37:43;10.07;;;1.00;;
38425;SDS011;24210;51.460;6.148;2022-11-02T08:40:09;3.80;;;0.70;;
38425;SDS011;24210;51.460;6.148;2022-11-02T08:42:34;13.83;;;1.57;;
38425;SDS011;24210;51.460;6.148;2022-11-02T08:45:03;3.25;;;1.08;;
38425;SDS011;24210;51.460;6.148;2022-11-02T08:47:28;4.00;;;0.97;;
38425;SDS011;24210;51.460;6.148;2022-11-02T08:49:53;9.50;;;1.20;;
38425;SDS011;24210;51.460;6.148;2022-11-02T08:52:18;4.37;;;1.03;;
38425;SDS011;24210;51.460;6.148;2022-11-02T08:54:43;4.10;;;0.57;;
38425;SDS011;24210;51.460;6.148;2022-11-02T08:57:09;9.33;;;1.53;;
38425;SDS011;24210;51.460;6.148;2022-11-02T08:59:34;8.33;;;1.70;;
38425;SDS011;24210;51.460;6.148;2022-11-02T09:02:00;4.20;;;1.30;;
38425;SDS011;24210;51.460;6.148;2022-11-02T09:04:25;4.37;;;1.00;;
38425;SDS011;24210;51.460;6.148;2022-11-02T09:06:50;3.13;;;1.17;;
38425;SDS011;24210;51.460;6.148;2022-11-02T09:09:15;1.80;;;0.60;;
38425;SDS011;24210;51.460;6.148;2022-11-02T09:11:41;4.23;;;0.53;;
38425;SDS011;24210;51.460;6.148;2022-11-02T09:14:06;4.50;;;1.20;;
38425;SDS011;24210;51.460;6.148;2022-11-02T09:16:31;2.90;;;0.93;;
38425;SDS011;24210;51.460;6.148;2022-11-02T09:18:57;1.43;;;0.47;;
38425;SDS011;24210;51.460;6.148;2022-11-02T09:21:22;9.60;;;0.93;;
38425;SDS011;24210;51.460;6.148;2022-11-02T09:23:47;6.77;;;2.00;;
38425;SDS011;24210;51.460;6.148;2022-11-02T09:26:13;3.70;;;1.13;;
38425;SDS011;24210;51.460;6.148;2022-11-02T09:28:38;7.63;;;1.20;;
38425;SDS011;24210;51.460;6.148;2022-11-02T09:31:04;15.93;;;4.50;;
38425;SDS011;24210;51.460;6.148;2022-11-02T09:33:29;5.67;;;0.93;;
38425;SDS011;24210;51.460;6.148;2022-11-02T09:38:21;4.63;;;1.45;;
38425;SDS011;24210;51.460;6.148;2022-11-02T09:40:58;2.77;;;1.10;;
38425;SDS011;24210;51.460;6.148;2022-11-02T09:46:00;1.13;;;0.70;;
38425;SDS011;24210;51.460;6.148;2022-11-02T09:48:28;6.80;;;2.17;;
38425;SDS011;24210;51.460;6.148;2022-11-02T09:51:08;5.68;;;1.73;;
38425;SDS011;24210;51.460;6.148;2022-11-02T09:56:11;2.65;;;1.35;;
38425;SDS011;24210;51.460;6.148;2022-11-02T09:58:38;5.32;;;1.40;;
38425;SDS011;24210;51.460;6.148;2022-11-02T10:01:09;1.05;;;0.70;;
38425;SDS011;24210;51.460;6.148;2022-11-02T10:13:50;14.60;;;1.85;;
38425;SDS011;24210;51.460;6.148;2022-11-02T10:16:20;6.80;;;1.80;;
38425;SDS011;24210;51.460;6.148;2022-11-02T10:18:45;7.45;;;1.75;;
38425;SDS011;24210;51.460;6.148;2022-11-02T10:21:20;9.55;;;2.10;;
38425;SDS011;24210;51.460;6.148;2022-11-02T10:23:51;7.85;;;1.15;;
38425;SDS011;24210;51.460;6.148;2022-11-02T10:26:37;4.80;;;0.40;;
38425;SDS011;24210;51.460;6.148;2022-11-02T10:29:22;4.53;;;0.60;;
38425;SDS011;24210;51.460;6.148;2022-11-02T10:31:50;3.05;;;1.23;;
38425;SDS011;24210;51.460;6.148;2022-11-02T10:34:21;9.87;;;1.83;;
38425;SDS011;24210;51.460;6.148;2022-11-02T10:39:30;6.13;;;0.73;;
38425;SDS011;24210;51.460;6.148;2022-11-02T10:42:04;5.63;;;1.60;;
38425;SDS011;24210;51.460;6.148;2022-11-02T10:47:46;5.22;;;1.65;;
38425;SDS011;24210;51.460;6.148;2022-11-02T10:52:42;4.77;;;1.40;;
38425;SDS011;24210;51.460;6.148;2022-11-02T10:57:34;4.40;;;0.80;;
38425;SDS011;24210;51.460;6.148;2022-11-02T11:02:46;8.13;;;1.97;;
38425;SDS011;24210;51.460;6.148;2022-11-02T11:05:25;6.57;;;1.33;;
38425;SDS011;24210;51.460;6.148;2022-11-02T11:07:50;0.83;;;0.37;;
38425;SDS011;24210;51.460;6.148;2022-11-02T11:10:16;1.97;;;0.77;;
38425;SDS011;24210;51.460;6.148;2022-11-02T11:12:41;1.07;;;0.43;;
38425;SDS011;24210;51.460;6.148;2022-11-02T11:15:14;6.43;;;1.83;;
38425;SDS011;24210;51.460;6.148;2022-11-02T11:17:43;3.17;;;0.90;;
38425;SDS011;24210;51.460;6.148;2022-11-02T11:25:33;7.10;;;0.98;;
38425;SDS011;24210;51.460;6.148;2022-11-02T11:27:59;2.60;;;0.73;;
38425;SDS011;24210;51.460;6.148;2022-11-02T11:32:49;8.50;;;1.57;;
38425;SDS011;24210;51.460;6.148;2022-11-02T11:35:15;0.67;;;0.20;;
38425;SDS011;24210;51.460;6.148;2022-11-02T11:37:49;4.57;;;1.45;;
38425;SDS011;24210;51.460;6.148;2022-11-02T11:40:16;6.43;;;1.42;;
38425;SDS011;24210;51.460;6.148;2022-11-02T11:42:43;2.72;;;0.95;;
38425;SDS011;24210;51.460;6.148;2022-11-02T11:47:42;6.43;;;1.10;;
38425;SDS011;24210;51.460;6.148;2022-11-02T11:50:14;2.40;;;0.57;;
38425;SDS011;24210;51.460;6.148;2022-11-02T11:52:40;7.18;;;1.20;;
38425;SDS011;24210;51.460;6.148;2022-11-02T11:55:19;2.27;;;1.03;;
38425;SDS011;24210;51.460;6.148;2022-11-02T11:57:45;5.53;;;1.35;;
38425;SDS011;24210;51.460;6.148;2022-11-02T12:00:24;8.37;;;0.90;;
38425;SDS011;24210;51.460;6.148;2022-11-02T12:03:00;6.30;;;1.50;;
38425;SDS011;24210;51.460;6.148;2022-11-02T12:05:26;4.03;;;1.77;;
38425;SDS011;24210;51.460;6.148;2022-11-02T12:08:07;6.03;;;1.13;;
38425;SDS011;24210;51.460;6.148;2022-11-02T12:18:03;5.63;;;1.20;;
38425;SDS011;24210;51.460;6.148;2022-11-02T12:20:40;6.70;;;1.88;;
38425;SDS011;24210;51.460;6.148;2022-11-02T12:25:47;7.05;;;1.40;;
38425;SDS011;24210;51.460;6.148;2022-11-02T12:33:42;1.38;;;0.38;;
38425;SDS011;24210;51.460;6.148;2022-11-02T12:43:46;4.80;;;0.98;;
38425;SDS011;24210;51.460;6.148;2022-11-02T12:51:11;8.05;;;1.75;;
38425;SDS011;24210;51.460;6.148;2022-11-02T12:53:49;9.40;;;1.30;;
38425;SDS011;24210;51.460;6.148;2022-11-02T12:56:24;9.48;;;1.73;;
38425;SDS011;24210;51.460;6.148;2022-11-02T12:58:50;12.63;;;3.83;;
38425;SDS011;24210;51.460;6.148;2022-11-02T13:01:18;8.60;;;1.77;;
38425;SDS011;24210;51.460;6.148;2022-11-02T13:06:14;10.02;;;1.67;;
38425;SDS011;24210;51.460;6.148;2022-11-02T13:11:06;14.17;;;1.87;;
38425;SDS011;24210;51.460;6.148;2022-11-02T13:13:38;9.25;;;1.48;;
38425;SDS011;24210;51.460;6.148;2022-11-02T13:16:05;5.20;;;1.45;;
38425;SDS011;24210;51.460;6.148;2022-11-02T13:18:34;8.18;;;1.10;;
38425;SDS011;24210;51.460;6.148;2022-11-02T13:21:01;8.43;;;3.17;;
38425;SDS011;24210;51.460;6.148;2022-11-02T13:25:55;11.52;;;2.80;;
38425;SDS011;24210;51.460;6.148;2022-11-02T13:28:36;10.07;;;1.98;;
38425;SDS011;24210;51.460;6.148;2022-11-02T13:31:05;10.27;;;1.98;;
38425;SDS011;24210;51.460;6.148;2022-11-02T13:33:50;8.00;;;2.20;;
38425;SDS011;24210;51.460;6.148;2022-11-02T13:36:16;8.63;;;1.88;;
38425;SDS011;24210;51.460;6.148;2022-11-02T13:41:17;5.57;;;1.48;;
38425;SDS011;24210;51.460;6.148;2022-11-02T13:51:18;6.18;;;1.30;;
38425;SDS011;24210;51.460;6.148;2022-11-02T13:54:00;9.25;;;1.45;;
38425;SDS011;24210;51.460;6.148;2022-11-02T13:56:27;8.45;;;1.50;;
38425;SDS011;24210;51.460;6.148;2022-11-02T13:58:57;8.88;;;1.30;;
38425;SDS011;24210;51.460;6.148;2022-11-02T14:01:23;14.00;;;1.75;;
38425;SDS011;24210;51.460;6.148;2022-11-02T14:03:50;7.35;;;1.60;;
38425;SDS011;24210;51.460;6.148;2022-11-02T14:06:17;5.35;;;1.17;;
38425;SDS011;24210;51.460;6.148;2022-11-02T14:08:50;8.23;;;1.30;;
38425;SDS011;24210;51.460;6.148;2022-11-02T14:14:04;6.00;;;1.00;;
38425;SDS011;24210;51.460;6.148;2022-11-02T14:17:12;9.82;;;1.73;;
38425;SDS011;24210;51.460;6.148;2022-11-02T14:26:53;7.53;;;1.40;;
38425;SDS011;24210;51.460;6.148;2022-11-02T14:29:35;7.50;;;1.42;;
38425;SDS011;24210;51.460;6.148;2022-11-02T14:32:02;12.75;;;3.28;;
38425;SDS011;24210;51.460;6.148;2022-11-02T14:34:31;10.18;;;1.45;;
38425;SDS011;24210;51.460;6.148;2022-11-02T14:44:27;9.10;;;2.85;;
38425;SDS011;24210;51.460;6.148;2022-11-02T14:49:23;6.82;;;1.00;;
38425;SDS011;24210;51.460;6.148;2022-11-02T14:52:32;7.63;;;1.10;;
38425;SDS011;24210;51.460;6.148;2022-11-02T14:54:44;8.27;;;2.38;;
38425;SDS011;24210;51.460;6.148;2022-11-02T14:57:19;9.20;;;1.45;;
38425;SDS011;24210;51.460;6.148;2022-11-02T14:59:48;5.63;;;1.15;;
38425;SDS011;24210;51.460;6.148;2022-11-02T15:02:19;10.90;;;3.10;;
38425;SDS011;24210;51.460;6.148;2022-11-02T15:04:56;12.55;;;2.08;;
38425;SDS011;24210;51.460;6.148;2022-11-02T15:07:28;11.10;;;2.03;;
38425;SDS011;24210;51.460;6.148;2022-11-02T15:09:56;6.85;;;1.10;;
38425;SDS011;24210;51.460;6.148;2022-11-02T15:12:29;10.63;;;1.65;;
38425;SDS011;24210;51.460;6.148;2022-11-02T15:20:37;7.77;;;1.70;;
38425;SDS011;24210;51.460;6.148;2022-11-02T15:22:38;4.55;;;1.10;;
38425;SDS011;24210;51.460;6.148;2022-11-02T15:27:33;6.70;;;1.48;;
38425;SDS011;24210;51.460;6.148;2022-11-02T15:29:59;9.52;;;2.47;;
38425;SDS011;24210;51.460;6.148;2022-11-02T15:32:25;7.87;;;1.53;;
38425;SDS011;24210;51.460;6.148;2022-11-02T15:34:52;7.90;;;1.75;;
38425;SDS011;24210;51.460;6.148;2022-11-02T15:37:19;16.88;;;1.95;;
38425;SDS011;24210;51.460;6.148;2022-11-02T15:39:47;8.30;;;2.15;;
38425;SDS011;24210;51.460;6.148;2022-11-02T15:42:14;9.77;;;1.60;;
38425;SDS011;24210;51.460;6.148;2022-11-02T15:47:45;9.00;;;1.77;;
38425;SDS011;24210;51.460;6.148;2022-11-02T15:53:05;8.80;;;1.42;;
38425;SDS011;24210;51.460;6.148;2022-11-02T15:56:09;10.25;;;2.15;;
38425;SDS011;24210;51.460;6.148;2022-11-02T15:58:27;9.23;;;2.22;;
38425;SDS011;24210;51.460;6.148;2022-11-02T16:01:02;6.40;;;1.75;;
38425;SDS011;24210;51.460;6.148;2022-11-02T16:03:28;12.68;;;1.80;;
38425;SDS011;24210;51.460;6.148;2022-11-02T16:05:53;7.17;;;1.30;;
38425;SDS011;24210;51.460;6.148;2022-11-02T16:10:47;10.27;;;1.67;;
38425;SDS011;24210;51.460;6.148;2022-11-02T16:13:14;9.97;;;2.40;;
38425;SDS011;24210;51.460;6.148;2022-11-02T16:15:42;8.73;;;1.83;;
38425;SDS011;24210;51.460;6.148;2022-11-02T16:18:21;13.57;;;1.60;;
38425;SDS011;24210;51.460;6.148;2022-11-02T16:20:46;12.57;;;2.53;;
38425;SDS011;24210;51.460;6.148;2022-11-02T16:23:12;8.57;;;1.60;;
38425;SDS011;24210;51.460;6.148;2022-11-02T16:25:41;6.70;;;1.80;;
38425;SDS011;24210;51.460;6.148;2022-11-02T16:28:27;10.25;;;1.98;;
38425;SDS011;24210;51.460;6.148;2022-11-02T16:33:37;7.60;;;2.30;;
38425;SDS011;24210;51.460;6.148;2022-11-02T16:36:03;8.25;;;1.70;;
38425;SDS011;24210;51.460;6.148;2022-11-02T16:38:29;8.07;;;1.95;;
38425;SDS011;24210;51.460;6.148;2022-11-02T16:40:55;7.20;;;1.67;;
38425;SDS011;24210;51.460;6.148;2022-11-02T16:43:20;7.07;;;1.37;;
38425;SDS011;24210;51.460;6.148;2022-11-02T16:45:48;9.47;;;2.30;;
38425;SDS011;24210;51.460;6.148;2022-11-02T16:48:17;14.85;;;7.78;;
38425;SDS011;24210;51.460;6.148;2022-11-02T16:50:58;20.92;;;11.73;;
38425;SDS011;24210;51.460;6.148;2022-11-02T16:53:27;20.17;;;12.82;;
38425;SDS011;24210;51.460;6.148;2022-11-02T16:55:53;41.47;;;32.70;;
38425;SDS011;24210;51.460;6.148;2022-11-02T16:58:23;12.68;;;10.82;;
38425;SDS011;24210;51.460;6.148;2022-11-02T17:00:52;12.57;;;5.37;;
38425;SDS011;24210;51.460;6.148;2022-11-02T17:03:18;9.00;;;3.15;;
38425;SDS011;24210;51.460;6.148;2022-11-02T17:05:46;8.63;;;2.03;;
38425;SDS011;24210;51.460;6.148;2022-11-02T17:08:20;10.20;;;6.05;;
38425;SDS011;24210;51.460;6.148;2022-11-02T17:10:46;9.45;;;2.00;;
38425;SDS011;24210;51.460;6.148;2022-11-02T17:13:14;7.20;;;1.80;;
38425;SDS011;24210;51.460;6.148;2022-11-02T17:15:44;10.80;;;2.35;;
38425;SDS011;24210;51.460;6.148;2022-11-02T17:20:37;7.13;;;2.23;;
38425;SDS011;24210;51.460;6.148;2022-11-02T17:23:03;8.30;;;2.50;;
38425;SDS011;24210;51.460;6.148;2022-11-02T17:25:30;11.15;;;2.20;;